Time;durP1;ratioP1;P1;durP2;ratioP2;P2;SDS_P1;SDS_P2;PMS_P1;PMS_P2;Temp;Humidity;BMP_temperature;BMP_pressure;BME280_temperature;BME280_humidity;BME280_pressure;Samples;Min_cycle;Max_cycle;Signal;HPM_P1;HPM_P2
2023/12/06 00:00:27;;;;;;;2.75;0.73;;;;;;;;;;5117111;28;20035;-49
2023/12/06 00:02:53;;;;;;;1.98;0.63;;;;;;;;;;5117287;28;20476;-53
2023/12/06 00:05:19;;;;;;;1.58;0.82;;;;;;;;;;5116878;28;20028;-50
2023/12/06 00:07:45;;;;;;;1.33;0.60;;;;;;;;;;5099242;28;20035;-49
2023/12/06 00:10:11;;;;;;;0.98;0.55;;;;;;;;;;5117338;28;20027;-50
2023/12/06 00:12:37;;;;;;;1.13;0.63;;;;;;;;;;5116768;28;20035;-48
2023/12/06 00:15:03;;;;;;;1.30;0.60;;;;;;;;;;5117265;28;20035;-50
2023/12/06 00:17:29;;;;;;;1.55;0.70;;;;;;;;;;5117018;28;20130;-48
2023/12/06 00:19:55;;;;;;;0.95;0.60;;;;;;;;;;5117080;28;20032;-50
2023/12/06 00:22:21;;;;;;;0.82;0.50;;;;;;;;;;5117160;28;20419;-49
2023/12/06 00:24:47;;;;;;;1.55;0.68;;;;;;;;;;5116537;28;20097;-49
2023/12/06 00:27:13;;;;;;;0.88;0.35;;;;;;;;;;5117074;28;20092;-50
2023/12/06 00:29:39;;;;;;;1.05;0.28;;;;;;;;;;5116155;28;20027;-51
2023/12/06 00:32:05;;;;;;;1.33;0.40;;;;;;;;;;5116424;28;20032;-52
2023/12/06 00:34:30;;;;;;;1.23;0.60;;;;;;;;;;5116276;28;20076;-51
2023/12/06 00:36:56;;;;;;;0.77;0.40;;;;;;;;;;5116674;28;20028;-50
2023/12/06 00:39:23;;;;;;;1.02;0.43;;;;;;;;;;5116163;28;20084;-50
2023/12/06 00:41:48;;;;;;;0.90;0.38;;;;;;;;;;5116403;28;20032;-52
2023/12/06 00:44:14;;;;;;;0.77;0.32;;;;;;;;;;5115895;28;20028;-49
2023/12/06 00:46:40;;;;;;;1.00;0.50;;;;;;;;;;5116061;28;20069;-50
2023/12/06 00:49:06;;;;;;;0.90;0.40;;;;;;;;;;5116981;28;20367;-53
2023/12/06 00:51:32;;;;;;;0.93;0.40;;;;;;;;;;5116273;28;20103;-52
2023/12/06 00:53:58;;;;;;;0.60;0.30;;;;;;;;;;5115906;28;20042;-51
2023/12/06 00:56:24;;;;;;;0.68;0.30;;;;;;;;;;5116124;28;20052;-52
2023/12/06 00:58:50;;;;;;;1.83;0.45;;;;;;;;;;5116327;28;20046;-50
2023/12/06 01:01:16;;;;;;;1.15;0.50;;;;;;;;;;5114731;28;20038;-52
2023/12/06 01:03:42;;;;;;;0.73;0.40;;;;;;;;;;5116036;28;20365;-53
2023/12/06 01:06:09;;;;;;;0.68;0.32;;;;;;;;;;5116044;28;20445;-53
2023/12/06 01:08:35;;;;;;;0.82;0.40;;;;;;;;;;5115972;28;20465;-53
2023/12/06 01:11:00;;;;;;;1.08;0.50;;;;;;;;;;5115656;28;20448;-51
2023/12/06 01:13:26;;;;;;;1.02;0.40;;;;;;;;;;5116142;28;20030;-52
2023/12/06 01:15:52;;;;;;;0.45;0.28;;;;;;;;;;5115581;28;20036;-52
2023/12/06 01:18:18;;;;;;;0.80;0.40;;;;;;;;;;5115975;28;20027;-54
2023/12/06 01:20:44;;;;;;;0.55;0.28;;;;;;;;;;5115940;28;20034;-54
2023/12/06 01:23:10;;;;;;;0.45;0.30;;;;;;;;;;5115404;28;20399;-54
2023/12/06 01:25:36;;;;;;;0.80;0.40;;;;;;;;;;5115314;28;20077;-53
2023/12/06 01:28:03;;;;;;;0.70;0.20;;;;;;;;;;5116147;28;20027;-51
2023/12/06 01:30:28;;;;;;;0.28;0.20;;;;;;;;;;5115221;28;20027;-51
2023/12/06 01:32:54;;;;;;;1.13;0.55;;;;;;;;;;5115192;28;20115;-52
2023/12/06 01:35:21;;;;;;;1.20;0.63;;;;;;;;;;5115377;28;20098;-53
2023/12/06 01:37:47;;;;;;;0.83;0.37;;;;;;;;;;5115224;28;20550;-54
2023/12/06 01:40:14;;;;;;;0.60;0.30;;;;;;;;;;5115563;28;20028;-50
2023/12/06 01:42:39;;;;;;;2.25;0.30;;;;;;;;;;5115025;28;20381;-53
2023/12/06 01:45:06;;;;;;;2.03;0.73;;;;;;;;;;5114938;28;20030;-50
2023/12/06 01:47:33;;;;;;;0.90;0.40;;;;;;;;;;5114922;28;20415;-49
2023/12/06 01:50:03;;;;;;;0.88;0.40;;;;;;;;;;5114870;28;20092;-51
2023/12/06 01:52:29;;;;;;;1.17;0.40;;;;;;;;;;5115038;28;20039;-49
2023/12/06 01:54:58;;;;;;;1.90;0.50;;;;;;;;;;5115101;28;20019;-50
2023/12/06 01:57:25;;;;;;;0.70;0.30;;;;;;;;;;5114813;28;20085;-55
2023/12/06 01:59:51;;;;;;;1.10;0.45;;;;;;;;;;5114990;28;20122;-53
2023/12/06 02:02:17;;;;;;;0.80;0.30;;;;;;;;;;5115237;28;20055;-53
2023/12/06 02:04:43;;;;;;;1.30;0.65;;;;;;;;;;5114342;28;20080;-53
2023/12/06 02:07:09;;;;;;;1.20;0.50;;;;;;;;;;5115095;28;20019;-53
2023/12/06 02:09:36;;;;;;;1.00;0.50;;;;;;;;;;5114239;28;20066;-51
2023/12/06 02:12:02;;;;;;;0.93;0.43;;;;;;;;;;5114226;28;20028;-52
2023/12/06 02:14:33;;;;;;;0.63;0.30;;;;;;;;;;5114405;28;20051;-52
2023/12/06 02:16:59;;;;;;;0.43;0.30;;;;;;;;;;5114968;28;20027;-54
2023/12/06 02:19:27;;;;;;;0.57;0.38;;;;;;;;;;5114312;28;20069;-49
2023/12/06 02:21:53;;;;;;;0.70;0.30;;;;;;;;;;5114869;28;20067;-52
2023/12/06 02:24:19;;;;;;;1.02;0.45;;;;;;;;;;5114317;28;20024;-49
2023/12/06 02:26:45;;;;;;;0.93;0.40;;;;;;;;;;5114231;28;20446;-51
2023/12/06 02:29:11;;;;;;;1.70;0.47;;;;;;;;;;5115085;28;20028;-53
2023/12/06 02:31:37;;;;;;;1.10;0.40;;;;;;;;;;5113932;28;20027;-51
2023/12/06 02:34:07;;;;;;;1.25;0.30;;;;;;;;;;5114090;28;20172;-51
2023/12/06 02:36:33;;;;;;;0.93;0.40;;;;;;;;;;5113855;28;20069;-51
2023/12/06 02:39:00;;;;;;;0.88;0.30;;;;;;;;;;5114351;28;20114;-51
2023/12/06 02:41:26;;;;;;;1.00;0.50;;;;;;;;;;5113828;28;20032;-50
2023/12/06 02:43:52;;;;;;;1.20;0.50;;;;;;;;;;5114111;28;20023;-52
2023/12/06 02:46:18;;;;;;;1.85;0.45;;;;;;;;;;5114396;28;20023;-50
2023/12/06 02:48:44;;;;;;;0.93;0.40;;;;;;;;;;5114644;28;20127;-54
2023/12/06 02:51:10;;;;;;;0.60;0.27;;;;;;;;;;5114001;28;20035;-50
2023/12/06 02:53:36;;;;;;;1.10;0.60;;;;;;;;;;5114876;28;20403;-54
2023/12/06 02:56:02;;;;;;;0.63;0.28;;;;;;;;;;5114112;28;20048;-51
2023/12/06 02:58:27;;;;;;;0.65;0.35;;;;;;;;;;5113926;28;20441;-51
2023/12/06 03:00:53;;;;;;;1.42;0.40;;;;;;;;;;5113663;28;20119;-50
2023/12/06 03:03:19;;;;;;;0.80;0.30;;;;;;;;;;5113543;28;20031;-54
2023/12/06 03:05:45;;;;;;;0.65;0.35;;;;;;;;;;5113880;28;20033;-51
2023/12/06 03:08:14;;;;;;;0.85;0.40;;;;;;;;;;5114466;28;20055;-54
2023/12/06 03:10:40;;;;;;;1.80;0.80;;;;;;;;;;5113813;28;20396;-52
2023/12/06 03:13:09;;;;;;;1.07;0.47;;;;;;;;;;5114188;28;20015;-53
2023/12/06 03:15:35;;;;;;;2.13;0.77;;;;;;;;;;5113879;28;20032;-50
2023/12/06 03:18:01;;;;;;;2.10;0.80;;;;;;;;;;5114378;28;20407;-54
2023/12/06 03:20:27;;;;;;;1.13;0.60;;;;;;;;;;5113710;28;20031;-53
2023/12/06 03:22:53;;;;;;;0.90;0.50;;;;;;;;;;5113746;28;20027;-51
2023/12/06 03:25:19;;;;;;;0.70;0.40;;;;;;;;;;5116357;28;20024;-54
2023/12/06 03:27:45;;;;;;;0.85;0.40;;;;;;;;;;5118024;28;20120;-53
2023/12/06 03:30:11;;;;;;;1.23;0.60;;;;;;;;;;5118144;28;20119;-53
2023/12/06 03:32:37;;;;;;;0.70;0.28;;;;;;;;;;5118357;28;20032;-52
2023/12/06 03:35:04;;;;;;;1.25;0.47;;;;;;;;;;5117437;28;20020;-51
2023/12/06 03:37:30;;;;;;;3.75;0.50;;;;;;;;;;5117581;28;20393;-53
2023/12/06 03:39:55;;;;;;;1.30;0.50;;;;;;;;;;5117906;28;20023;-55
2023/12/06 03:42:21;;;;;;;1.27;0.40;;;;;;;;;;5117339;28;20457;-53
2023/12/06 03:44:47;;;;;;;1.02;0.52;;;;;;;;;;5117301;28;20140;-53
2023/12/06 03:47:13;;;;;;;1.63;0.60;;;;;;;;;;5117932;28;20493;-55
2023/12/06 03:49:39;;;;;;;0.90;0.45;;;;;;;;;;5117545;28;20087;-52
2023/12/06 03:52:07;;;;;;;0.50;0.30;;;;;;;;;;5117330;28;20024;-51
2023/12/06 03:54:33;;;;;;;1.63;0.77;;;;;;;;;;5117136;28;20077;-51
2023/12/06 03:56:59;;;;;;;0.82;0.38;;;;;;;;;;5117453;28;20465;-53
2023/12/06 03:59:25;;;;;;;4.72;0.40;;;;;;;;;;5117014;28;20068;-54
2023/12/06 04:01:51;;;;;;;0.63;0.32;;;;;;;;;;5116997;28;20461;-53
2023/12/06 04:04:17;;;;;;;0.75;0.40;;;;;;;;;;5117161;28;20135;-54
2023/12/06 04:06:43;;;;;;;3.08;0.32;;;;;;;;;;5116896;28;20024;-55
2023/12/06 04:09:10;;;;;;;0.85;0.40;;;;;;;;;;5117449;28;20024;-48
2023/12/06 04:11:36;;;;;;;1.10;0.55;;;;;;;;;;5116749;28;20347;-52
2023/12/06 04:14:03;;;;;;;0.82;0.40;;;;;;;;;;5116780;28;20176;-55
2023/12/06 04:16:30;;;;;;;0.82;0.30;;;;;;;;;;5116766;28;20034;-55
2023/12/06 04:18:55;;;;;;;2.47;0.50;;;;;;;;;;5117170;28;20020;-53
2023/12/06 04:21:22;;;;;;;0.95;0.32;;;;;;;;;;5116643;28;20085;-53
2023/12/06 04:23:48;;;;;;;0.70;0.40;;;;;;;;;;5116795;28;20034;-52
2023/12/06 04:26:14;;;;;;;0.70;0.20;;;;;;;;;;5117115;28;20031;-55
2023/12/06 04:28:40;;;;;;;0.77;0.40;;;;;;;;;;5116504;28;20534;-55
2023/12/06 04:31:06;;;;;;;1.27;0.40;;;;;;;;;;5116086;28;20055;-53
2023/12/06 04:33:32;;;;;;;4.63;0.52;;;;;;;;;;5116995;28;20019;-52
2023/12/06 04:35:58;;;;;;;0.82;0.40;;;;;;;;;;5116104;28;20411;-51
2023/12/06 04:38:24;;;;;;;0.63;0.30;;;;;;;;;;5116266;28;20445;-54
2023/12/06 04:40:50;;;;;;;1.10;0.40;;;;;;;;;;5116760;28;20034;-54
2023/12/06 04:43:19;;;;;;;1.00;0.30;;;;;;;;;;5116280;28;20427;-54
2023/12/06 04:45:45;;;;;;;0.85;0.40;;;;;;;;;;5115917;28;20023;-51
2023/12/06 04:48:11;;;;;;;0.95;0.35;;;;;;;;;;5116439;28;20503;-55
2023/12/06 04:50:37;;;;;;;0.47;0.30;;;;;;;;;;5116056;28;20039;-52
2023/12/06 04:53:03;;;;;;;1.27;0.32;;;;;;;;;;5115930;28;20469;-54
2023/12/06 04:55:29;;;;;;;0.88;0.40;;;;;;;;;;5116716;28;20043;-53
2023/12/06 04:57:55;;;;;;;0.57;0.30;;;;;;;;;;5115932;28;20024;-55
2023/12/06 05:00:22;;;;;;;0.52;0.28;;;;;;;;;;5114821;28;20085;-53
2023/12/06 05:02:48;;;;;;;0.83;0.30;;;;;;;;;;5115907;28;20027;-54
2023/12/06 05:05:15;;;;;;;0.63;0.35;;;;;;;;;;5116158;28;20019;-53
2023/12/06 05:07:41;;;;;;;0.60;0.20;;;;;;;;;;5116403;28;20023;-53
2023/12/06 05:10:07;;;;;;;0.50;0.30;;;;;;;;;;5116276;28;20034;-52
2023/12/06 05:12:33;;;;;;;0.82;0.32;;;;;;;;;;5115990;28;20020;-50
2023/12/06 05:14:59;;;;;;;2.58;0.25;;;;;;;;;;5115620;28;20034;-53
2023/12/06 05:17:25;;;;;;;0.52;0.30;;;;;;;;;;5115903;28;20024;-51
2023/12/06 05:19:51;;;;;;;1.08;0.47;;;;;;;;;;5115194;28;20382;-53
2023/12/06 05:22:17;;;;;;;0.63;0.35;;;;;;;;;;5115248;28;20031;-51
2023/12/06 05:24:43;;;;;;;1.15;0.60;;;;;;;;;;5115498;28;20016;-53
2023/12/06 05:27:09;;;;;;;0.60;0.32;;;;;;;;;;5115399;28;20062;-51
2023/12/06 05:29:35;;;;;;;0.73;0.30;;;;;;;;;;5115708;28;20063;-54
2023/12/06 05:32:02;;;;;;;0.80;0.32;;;;;;;;;;5115196;28;20362;-55
2023/12/06 05:34:29;;;;;;;0.77;0.30;;;;;;;;;;5115117;28;20080;-54
2023/12/06 05:36:55;;;;;;;0.32;0.20;;;;;;;;;;5115079;28;20023;-53
2023/12/06 05:39:21;;;;;;;0.33;0.20;;;;;;;;;;5115475;28;20449;-50
2023/12/06 05:41:47;;;;;;;0.10;0.10;;;;;;;;;;5114945;28;20035;-53
2023/12/06 05:44:13;;;;;;;0.70;0.30;;;;;;;;;;5115257;28;20027;-55
2023/12/06 05:46:39;;;;;;;0.88;0.40;;;;;;;;;;5114421;28;20027;-52
2023/12/06 05:49:05;;;;;;;0.40;0.20;;;;;;;;;;5114851;28;20031;-50
2023/12/06 05:51:31;;;;;;;0.70;0.40;;;;;;;;;;5115147;28;20023;-48
2023/12/06 05:53:57;;;;;;;0.77;0.40;;;;;;;;;;5115086;28;20370;-52
2023/12/06 05:56:26;;;;;;;0.73;0.30;;;;;;;;;;5114751;28;20058;-53
2023/12/06 05:58:52;;;;;;;1.38;0.52;;;;;;;;;;5114833;28;20043;-53
2023/12/06 06:01:18;;;;;;;0.82;0.30;;;;;;;;;;5115049;28;20376;-49
2023/12/06 06:03:44;;;;;;;1.33;0.68;;;;;;;;;;5114434;28;20421;-53
2023/12/06 06:06:10;;;;;;;1.20;0.50;;;;;;;;;;5115309;28;20076;-51
2023/12/06 06:08:36;;;;;;;0.65;0.30;;;;;;;;;;5115442;28;20034;-53
2023/12/06 06:11:02;;;;;;;0.70;0.30;;;;;;;;;;5114561;28;20374;-50
2023/12/06 06:13:29;;;;;;;0.88;0.38;;;;;;;;;;5114982;28;20034;-51
2023/12/06 06:15:58;;;;;;;1.50;0.77;;;;;;;;;;5114455;28;20446;-50
2023/12/06 06:18:24;;;;;;;1.25;0.55;;;;;;;;;;5114828;28;20032;-49
2023/12/06 06:20:51;;;;;;;1.08;0.50;;;;;;;;;;5114321;28;20048;-52
2023/12/06 06:23:17;;;;;;;1.10;0.60;;;;;;;;;;5114798;28;20039;-55
2023/12/06 06:25:43;;;;;;;2.38;1.35;;;;;;;;;;5114362;28;20035;-49
2023/12/06 06:28:09;;;;;;;1.65;0.55;;;;;;;;;;5114402;28;20055;-50
2023/12/06 06:30:34;;;;;;;1.43;0.63;;;;;;;;;;5114187;28;20031;-51
2023/12/06 06:33:00;;;;;;;1.33;0.65;;;;;;;;;;5114664;28;20032;-54
2023/12/06 06:35:26;;;;;;;1.08;0.40;;;;;;;;;;5114899;28;20031;-52
2023/12/06 06:37:52;;;;;;;0.77;0.40;;;;;;;;;;5114870;28;20042;-55
2023/12/06 06:40:18;;;;;;;1.13;0.60;;;;;;;;;;5114172;28;20114;-48
2023/12/06 06:42:45;;;;;;;0.85;0.40;;;;;;;;;;5114747;28;20034;-50
2023/12/06 06:45:11;;;;;;;2.72;0.50;;;;;;;;;;5114235;28;20373;-51
2023/12/06 06:47:38;;;;;;;1.65;0.63;;;;;;;;;;5114423;28;20028;-52
2023/12/06 06:50:04;;;;;;;1.55;0.60;;;;;;;;;;5114199;28;20031;-54
2023/12/06 06:52:30;;;;;;;1.55;0.68;;;;;;;;;;5114087;28;20469;-55
2023/12/06 06:54:57;;;;;;;1.30;0.50;;;;;;;;;;5113841;28;20028;-51
2023/12/06 06:57:23;;;;;;;0.98;0.38;;;;;;;;;;5114747;28;20361;-54
2023/12/06 06:59:49;;;;;;;1.08;0.57;;;;;;;;;;5117680;28;20028;-53
2023/12/06 07:02:16;;;;;;;2.17;0.70;;;;;;;;;;5118149;28;20023;-53
2023/12/06 07:04:42;;;;;;;0.98;0.45;;;;;;;;;;5118451;28;20063;-56
2023/12/06 07:07:08;;;;;;;1.25;0.65;;;;;;;;;;5118416;28;20077;-54
2023/12/06 07:09:34;;;;;;;2.58;0.70;;;;;;;;;;5118894;28;20031;-56
2023/12/06 07:12:02;;;;;;;1.88;0.85;;;;;;;;;;5118612;28;20107;-55
2023/12/06 07:14:28;;;;;;;1.70;0.70;;;;;;;;;;5117972;28;20036;-53
2023/12/06 07:16:54;;;;;;;1.85;0.80;;;;;;;;;;5117549;28;20028;-51
2023/12/06 07:19:21;;;;;;;2.50;0.80;;;;;;;;;;5117566;28;20086;-52
2023/12/06 07:21:47;;;;;;;1.77;0.90;;;;;;;;;;5117732;28;20445;-51
2023/12/06 07:24:13;;;;;;;3.88;2.35;;;;;;;;;;5118548;28;20062;-54
2023/12/06 07:26:39;;;;;;;3.17;2.33;;;;;;;;;;5117860;28;20031;-54
2023/12/06 07:29:14;;;;;;;1.75;0.98;;;;;;;;;;5117442;28;20537;-51
2023/12/06 07:31:40;;;;;;;1.27;0.60;;;;;;;;;;5117703;28;20034;-56
2023/12/06 07:34:06;;;;;;;1.10;0.73;;;;;;;;;;5118003;28;20024;-57
2023/12/06 07:36:32;;;;;;;2.03;1.08;;;;;;;;;;5117337;28;20023;-57
2023/12/06 07:38:58;;;;;;;1.88;0.82;;;;;;;;;;5118078;28;20042;-57
2023/12/06 07:41:24;;;;;;;1.00;0.52;;;;;;;;;;5117594;28;20023;-56
2023/12/06 07:43:50;;;;;;;1.25;0.75;;;;;;;;;;5117398;28;20032;-54
2023/12/06 07:46:16;;;;;;;2.35;1.10;;;;;;;;;;5117452;28;20032;-55
2023/12/06 07:48:42;;;;;;;2.47;1.00;;;;;;;;;;5117921;28;20024;-51
2023/12/06 07:51:08;;;;;;;3.45;0.82;;;;;;;;;;5117300;28;20055;-50
2023/12/06 07:53:34;;;;;;;1.90;0.80;;;;;;;;;;5117278;28;20015;-51
2023/12/06 07:56:00;;;;;;;2.05;1.00;;;;;;;;;;5117573;28;20047;-51
2023/12/06 07:58:30;;;;;;;1.65;0.95;;;;;;;;;;5117118;28;20034;-53
2023/12/06 08:00:56;;;;;;;1.75;1.05;;;;;;;;;;5117148;28;20125;-50
2023/12/06 08:03:26;;;;;;;1.85;0.90;;;;;;;;;;5117366;28;20046;-56
2023/12/06 08:05:52;;;;;;;2.55;0.98;;;;;;;;;;5116958;28;20081;-55
2023/12/06 08:08:18;;;;;;;0.90;0.45;;;;;;;;;;5117593;28;20034;-56
2023/12/06 08:10:43;;;;;;;2.15;1.20;;;;;;;;;;5116337;28;20038;-54
2023/12/06 08:13:10;;;;;;;1.75;0.93;;;;;;;;;;5116711;28;20027;-55
2023/12/06 08:15:36;;;;;;;1.77;0.75;;;;;;;;;;5117464;28;20020;-55
2023/12/06 08:18:02;;;;;;;2.20;1.20;;;;;;;;;;5116892;28;20042;-51
2023/12/06 08:20:28;;;;;;;1.10;0.70;;;;;;;;;;5116739;28;20032;-54
2023/12/06 08:22:55;;;;;;;2.22;1.10;;;;;;;;;;5117176;28;20110;-56
2023/12/06 08:25:21;;;;;;;3.25;0.90;;;;;;;;;;5116646;28;20046;-51
2023/12/06 08:27:47;;;;;;;2.60;1.55;;;;;;;;;;5117487;28;20028;-56
2023/12/06 08:30:13;;;;;;;1.58;0.82;;;;;;;;;;5116352;28;20533;-51
2023/12/06 08:32:39;;;;;;;1.98;1.25;;;;;;;;;;5116536;28;20019;-55
2023/12/06 08:35:05;;;;;;;1.83;1.42;;;;;;;;;;5116479;28;20354;-53
2023/12/06 08:37:31;;;;;;;2.58;2.03;;;;;;;;;;5116812;28;20051;-57
2023/12/06 08:39:57;;;;;;;4.20;2.70;;;;;;;;;;5116428;28;20127;-55
2023/12/06 08:42:23;;;;;;;5.03;3.00;;;;;;;;;;5117173;28;20377;-53
2023/12/06 08:44:50;;;;;;;3.92;2.70;;;;;;;;;;5098672;28;20023;-50
2023/12/06 08:47:17;;;;;;;4.55;2.97;;;;;;;;;;5117190;28;20027;-55
2023/12/06 08:49:43;;;;;;;6.63;3.10;;;;;;;;;;5116247;28;20032;-54
2023/12/06 08:52:10;;;;;;;6.05;4.20;;;;;;;;;;5116414;28;20354;-55
2023/12/06 08:54:38;;;;;;;5.28;4.43;;;;;;;;;;5116152;28;20359;-57
2023/12/06 08:57:04;;;;;;;5.72;4.20;;;;;;;;;;5116503;28;20043;-54
2023/12/06 08:59:30;;;;;;;5.85;4.25;;;;;;;;;;5115892;28;20031;-57
2023/12/06 09:01:56;;;;;;;6.22;5.15;;;;;;;;;;5116563;28;20152;-53
2023/12/06 09:04:22;;;;;;;5.82;4.40;;;;;;;;;;5116388;28;20081;-56
2023/12/06 09:06:48;;;;;;;5.75;4.78;;;;;;;;;;5115894;28;20024;-51
2023/12/06 09:09:17;;;;;;;5.88;4.68;;;;;;;;;;5115609;28;20032;-55
2023/12/06 09:11:44;;;;;;;7.10;5.88;;;;;;;;;;5116613;28;20342;-52
2023/12/06 09:14:10;;;;;;;8.95;6.15;;;;;;;;;;5115733;28;20048;-54
2023/12/06 09:16:36;;;;;;;7.43;5.93;;;;;;;;;;5116155;28;20465;-54
2023/12/06 09:19:03;;;;;;;7.65;5.82;;;;;;;;;;5115946;28;20373;-54
2023/12/06 09:21:39;;;;;;;8.77;5.63;;;;;;;;;;5115473;28;20374;-50
2023/12/06 09:24:05;;;;;;;8.40;6.57;;;;;;;;;;5115500;28;20027;-53
2023/12/06 09:26:31;;;;;;;7.65;5.97;;;;;;;;;;5115444;28;20028;-55
2023/12/06 09:28:57;;;;;;;10.02;7.22;;;;;;;;;;5115985;28;20115;-55
2023/12/06 09:31:23;;;;;;;7.15;6.13;;;;;;;;;;5116170;28;20445;-55
2023/12/06 09:33:49;;;;;;;8.43;6.70;;;;;;;;;;5115638;28;20034;-51
2023/12/06 09:36:16;;;;;;;8.52;6.35;;;;;;;;;;5115888;28;20035;-57
2023/12/06 09:38:42;;;;;;;6.80;6.10;;;;;;;;;;5115796;28;20035;-55
2023/12/06 09:41:08;;;;;;;14.63;8.25;;;;;;;;;;5115074;28;20377;-56
2023/12/06 09:43:36;;;;;;;8.13;6.65;;;;;;;;;;5115204;28;20488;-55
2023/12/06 09:46:03;;;;;;;7.70;5.95;;;;;;;;;;5115633;28;20035;-55
2023/12/06 09:48:29;;;;;;;6.93;5.88;;;;;;;;;;5115066;28;20449;-56
2023/12/06 09:50:55;;;;;;;7.30;6.32;;;;;;;;;;5115360;28;20023;-54
2023/12/06 09:53:22;;;;;;;7.65;6.53;;;;;;;;;;5114545;28;20027;-57
2023/12/06 09:55:48;;;;;;;8.02;6.13;;;;;;;;;;5115701;28;20189;-54
2023/12/06 09:58:15;;;;;;;8.30;6.55;;;;;;;;;;5114517;28;20484;-54
2023/12/06 10:00:41;;;;;;;7.55;6.57;;;;;;;;;;5114782;28;20024;-57
2023/12/06 10:03:12;;;;;;;8.52;6.85;;;;;;;;;;5115276;28;20035;-56
2023/12/06 10:05:38;;;;;;;11.35;7.78;;;;;;;;;;5115665;28;20110;-53
2023/12/06 10:08:04;;;;;;;8.48;7.40;;;;;;;;;;5115057;28;20063;-56
2023/12/06 10:10:30;;;;;;;10.95;7.25;;;;;;;;;;5114395;28;20407;-56
2023/12/06 10:12:56;;;;;;;8.20;6.90;;;;;;;;;;5114669;28;20051;-54
2023/12/06 10:15:22;;;;;;;8.55;6.00;;;;;;;;;;5114741;28;20024;-55
2023/12/06 10:17:49;;;;;;;9.20;7.97;;;;;;;;;;5115159;28;20023;-56
2023/12/06 10:20:15;;;;;;;10.27;8.52;;;;;;;;;;5114618;28;20138;-56
2023/12/06 10:22:41;;;;;;;13.05;8.57;;;;;;;;;;5115308;28;20357;-54
2023/12/06 10:25:08;;;;;;;9.65;7.50;;;;;;;;;;5115334;28;20028;-54
2023/12/06 10:27:35;;;;;;;10.20;8.20;;;;;;;;;;5114720;28;20072;-52
2023/12/06 10:30:08;;;;;;;8.88;6.82;;;;;;;;;;5114637;28;20076;-56
2023/12/06 10:32:34;;;;;;;8.75;7.65;;;;;;;;;;5114572;28;20480;-56
2023/12/06 10:35:06;;;;;;;11.98;7.18;;;;;;;;;;5114809;28;20023;-52
2023/12/06 10:37:33;;;;;;;9.82;8.52;;;;;;;;;;5114915;28;20176;-55
2023/12/06 10:40:00;;;;;;;11.07;7.72;;;;;;;;;;5114145;28;20118;-53
2023/12/06 10:42:31;;;;;;;8.32;6.65;;;;;;;;;;5114240;28;20031;-56
2023/12/06 10:44:58;;;;;;;9.35;7.57;;;;;;;;;;5114007;28;20115;-51
2023/12/06 10:47:25;;;;;;;11.05;7.45;;;;;;;;;;5114449;28;20031;-54
2023/12/06 10:49:51;;;;;;;11.13;7.55;;;;;;;;;;5114692;28;20369;-54
2023/12/06 10:52:17;;;;;;;8.25;7.28;;;;;;;;;;5114324;28;20028;-53
2023/12/06 10:54:45;;;;;;;7.10;6.22;;;;;;;;;;5114090;28;20034;-57
2023/12/06 10:57:12;;;;;;;13.02;7.57;;;;;;;;;;5115061;28;20093;-53
2023/12/06 10:59:38;;;;;;;8.45;6.97;;;;;;;;;;5113991;28;20122;-54
2023/12/06 11:02:04;;;;;;;7.78;6.47;;;;;;;;;;5114634;28;20059;-54
2023/12/06 11:04:35;;;;;;;8.02;6.05;;;;;;;;;;5114369;28;20119;-57
2023/12/06 11:07:04;;;;;;;11.68;9.70;;;;;;;;;;5114299;28;20426;-53
2023/12/06 11:09:49;;;;;;;6.82;5.80;;;;;;;;;;5113900;28;20032;-56
2023/12/06 11:12:20;;;;;;;9.40;6.63;;;;;;;;;;5113827;28;20028;-57
2023/12/06 11:15:06;;;;;;;7.88;5.43;;;;;;;;;;5113899;28;20536;-56
2023/12/06 11:17:38;;;;;;;7.50;6.63;;;;;;;;;;5113948;28;20461;-56
2023/12/06 11:20:04;;;;;;;8.45;7.05;;;;;;;;;;5114218;28;20032;-56
2023/12/06 11:22:30;;;;;;;13.60;6.53;;;;;;;;;;5114147;28;20028;-56
2023/12/06 11:24:56;;;;;;;11.63;7.38;;;;;;;;;;5113554;28;20493;-56
2023/12/06 11:27:22;;;;;;;6.28;5.50;;;;;;;;;;5114412;28;20153;-53
2023/12/06 11:29:49;;;;;;;7.45;5.88;;;;;;;;;;5113820;28;20023;-55
2023/12/06 11:32:15;;;;;;;6.85;5.85;;;;;;;;;;5113712;28;20116;-50
2023/12/06 11:34:41;;;;;;;8.32;6.28;;;;;;;;;;5114074;28;20027;-57
2023/12/06 11:37:16;;;;;;;10.15;7.60;;;;;;;;;;5114351;28;20472;-53
2023/12/06 11:39:48;;;;;;;7.95;5.78;;;;;;;;;;5114175;28;20377;-50
2023/12/06 11:42:18;;;;;;;8.05;6.05;;;;;;;;;;5114273;28;20023;-56
2023/12/06 11:44:53;;;;;;;11.23;6.47;;;;;;;;;;5114351;28;20024;-52
2023/12/06 11:47:26;;;;;;;7.03;6.05;;;;;;;;;;5117790;28;20020;-55
2023/12/06 11:49:53;;;;;;;9.63;6.65;;;;;;;;;;5117469;28;20351;-56
2023/12/06 11:52:20;;;;;;;7.47;6.43;;;;;;;;;;5117801;28;20449;-52
2023/12/06 11:54:46;;;;;;;7.18;6.22;;;;;;;;;;5116978;28;20023;-52
2023/12/06 11:57:14;;;;;;;7.30;5.72;;;;;;;;;;5117922;28;20139;-53
2023/12/06 11:59:40;;;;;;;7.10;5.55;;;;;;;;;;5117085;28;20034;-57
2023/12/06 12:02:07;;;;;;;7.53;6.22;;;;;;;;;;5117187;28;20111;-55
2023/12/06 12:04:34;;;;;;;9.05;6.60;;;;;;;;;;5117080;28;20070;-55
2023/12/06 12:07:00;;;;;;;5.78;5.20;;;;;;;;;;5118000;28;20028;-55
2023/12/06 12:09:29;;;;;;;6.68;5.43;;;;;;;;;;5117887;28;20036;-56
2023/12/06 12:11:55;;;;;;;8.98;5.75;;;;;;;;;;5117016;28;20323;-57
2023/12/06 12:14:21;;;;;;;7.63;6.30;;;;;;;;;;5116590;28;20020;-56
2023/12/06 12:16:47;;;;;;;7.78;5.93;;;;;;;;;;5116560;28;20031;-55
2023/12/06 12:19:13;;;;;;;7.07;6.13;;;;;;;;;;5117577;28;20114;-55
2023/12/06 12:21:39;;;;;;;8.70;7.10;;;;;;;;;;5116835;28;20114;-56
2023/12/06 12:24:05;;;;;;;8.13;6.65;;;;;;;;;;5116785;28;20509;-52
2023/12/06 12:26:31;;;;;;;7.20;6.13;;;;;;;;;;5116743;28;20057;-54
2023/12/06 12:28:58;;;;;;;7.32;6.05;;;;;;;;;;5117169;28;20115;-54
2023/12/06 12:31:28;;;;;;;6.75;5.75;;;;;;;;;;5117111;28;20032;-51
2023/12/06 12:33:54;;;;;;;6.78;5.80;;;;;;;;;;5116574;28;20407;-54
2023/12/06 12:36:20;;;;;;;8.00;6.80;;;;;;;;;;5116459;28;20025;-55
2023/12/06 12:38:46;;;;;;;7.60;6.03;;;;;;;;;;5116333;28;20484;-53
2023/12/06 12:41:13;;;;;;;9.45;6.88;;;;;;;;;;5116918;28;20032;-57
2023/12/06 12:43:39;;;;;;;8.93;6.68;;;;;;;;;;5116919;28;20027;-55
2023/12/06 12:46:05;;;;;;;8.35;6.93;;;;;;;;;;5116607;28;20024;-56
2023/12/06 12:48:31;;;;;;;7.15;6.25;;;;;;;;;;5116954;28;20019;-56
2023/12/06 12:51:14;;;;;;;7.43;6.45;;;;;;;;;;5116120;28;20031;-54
2023/12/06 12:53:42;;;;;;;8.20;6.80;;;;;;;;;;5116681;28;20115;-56
2023/12/06 12:56:09;;;;;;;9.02;6.35;;;;;;;;;;5116160;28;20048;-55
2023/12/06 12:58:36;;;;;;;8.45;5.93;;;;;;;;;;5115810;28;20020;-52
2023/12/06 13:01:03;;;;;;;10.15;7.10;;;;;;;;;;5116106;28;20389;-53
2023/12/06 13:03:32;;;;;;;8.27;6.50;;;;;;;;;;5115622;28;20462;-54
2023/12/06 13:06:01;;;;;;;11.77;7.70;;;;;;;;;;5115902;28;20019;-52
2023/12/06 13:08:28;;;;;;;10.50;6.63;;;;;;;;;;5116452;28;20107;-53
2023/12/06 13:10:54;;;;;;;9.57;6.45;;;;;;;;;;5115637;28;20040;-53
2023/12/06 13:13:20;;;;;;;8.57;6.60;;;;;;;;;;5115812;28;20072;-54
2023/12/06 13:15:46;;;;;;;9.27;6.72;;;;;;;;;;5115803;28;20030;-55
2023/12/06 13:18:12;;;;;;;8.10;5.95;;;;;;;;;;5116326;28;20058;-54
2023/12/06 13:20:38;;;;;;;7.90;6.32;;;;;;;;;;5115559;28;20031;-52
2023/12/06 13:23:04;;;;;;;6.55;5.88;;;;;;;;;;5116129;28;20370;-51
2023/12/06 13:25:30;;;;;;;8.57;6.45;;;;;;;;;;5115629;28;20419;-54
2023/12/06 13:27:56;;;;;;;7.78;5.57;;;;;;;;;;5116360;28;20031;-53
2023/12/06 13:30:22;;;;;;;7.93;6.60;;;;;;;;;;5115995;28;20028;-51
2023/12/06 13:32:48;;;;;;;6.80;5.00;;;;;;;;;;5115397;28;20020;-57
2023/12/06 13:35:14;;;;;;;8.40;5.97;;;;;;;;;;5115859;28;20028;-55
2023/12/06 13:37:40;;;;;;;6.90;5.88;;;;;;;;;;5115817;28;20123;-54
2023/12/06 13:40:08;;;;;;;9.15;6.35;;;;;;;;;;5114822;28;20027;-57
2023/12/06 13:42:33;;;;;;;6.70;6.05;;;;;;;;;;5114945;28;20088;-56
2023/12/06 13:44:59;;;;;;;6.35;5.00;;;;;;;;;;5114980;28;20023;-56
2023/12/06 13:47:25;;;;;;;7.32;6.45;;;;;;;;;;5115697;28;20019;-50
2023/12/06 13:49:51;;;;;;;6.47;5.50;;;;;;;;;;5115087;28;20035;-51
2023/12/06 13:52:20;;;;;;;8.02;6.28;;;;;;;;;;5114973;28;20031;-54
2023/12/06 13:54:46;;;;;;;7.90;6.60;;;;;;;;;;5114999;28;20028;-54
2023/12/06 13:57:12;;;;;;;7.50;5.90;;;;;;;;;;5115922;28;20054;-56
2023/12/06 13:59:39;;;;;;;7.43;6.30;;;;;;;;;;5115419;28;20027;-54
2023/12/06 14:02:05;;;;;;;7.55;5.57;;;;;;;;;;5115127;28;20036;-54
2023/12/06 14:04:31;;;;;;;7.15;6.32;;;;;;;;;;5114466;28;20032;-51
2023/12/06 14:06:58;;;;;;;7.43;6.10;;;;;;;;;;5115271;28;20043;-56
2023/12/06 14:09:27;;;;;;;8.43;6.18;;;;;;;;;;5114570;28;20058;-53
2023/12/06 14:11:55;;;;;;;7.35;6.30;;;;;;;;;;5114756;28;20031;-51
2023/12/06 14:14:21;;;;;;;8.60;6.07;;;;;;;;;;5115257;28;20415;-51
2023/12/06 14:16:47;;;;;;;7.20;6.25;;;;;;;;;;5114537;28;20103;-54
2023/12/06 14:19:13;;;;;;;7.78;5.80;;;;;;;;;;5114950;28;20514;-54
2023/12/06 14:21:40;;;;;;;11.30;6.22;;;;;;;;;;5114528;28;20038;-54
2023/12/06 14:24:09;;;;;;;7.47;5.53;;;;;;;;;;5114468;28;20024;-51
2023/12/06 14:26:35;;;;;;;7.95;5.90;;;;;;;;;;5114282;28;20491;-55
2023/12/06 14:29:03;;;;;;;7.03;5.97;;;;;;;;;;5114477;28;20038;-56
2023/12/06 14:31:29;;;;;;;8.45;6.32;;;;;;;;;;5114408;28;20030;-56
2023/12/06 14:33:56;;;;;;;8.65;6.35;;;;;;;;;;5114308;28;20019;-55
2023/12/06 14:36:22;;;;;;;6.70;5.57;;;;;;;;;;5114377;28;20458;-55
2023/12/06 14:38:48;;;;;;;8.40;5.95;;;;;;;;;;5114632;28;20020;-57